createdAt,value
2019-03-25T00:01:14.559Z,89.70
2019-03-25T00:03:44.502Z,89.60
2019-03-25T00:06:14.195Z,88.90
2019-03-25T00:08:43.997Z,88.70
2019-03-25T00:11:13.888Z,88.90
2019-03-25T00:13:44.061Z,89.00
2019-03-25T00:16:13.828Z,89.30
2019-03-25T00:18:43.622Z,88.30
2019-03-25T00:21:13.471Z,88.40
2019-03-25T00:23:43.259Z,88.10
2019-03-25T00:26:12.947Z,87.40
2019-03-25T00:28:42.700Z,87.30
2019-03-25T00:31:12.590Z,87.60
2019-03-25T00:33:42.340Z,87.40
2019-03-25T00:36:12.015Z,87.80
2019-03-25T00:38:41.745Z,87.80
2019-03-25T00:41:11.503Z,87.20
2019-03-25T00:43:41.259Z,87.50
2019-03-25T00:46:11.322Z,88.10
2019-03-25T00:48:41.091Z,88.90
2019-03-25T00:51:13.154Z,89.20
2019-03-25T00:53:42.888Z,88.60
2019-03-25T00:56:12.575Z,89.50
2019-03-25T00:58:42.363Z,89.40
2019-03-25T01:01:13.021Z,89.70
2019-03-25T01:03:42.781Z,89.90
2019-03-25T01:06:12.775Z,90.50
2019-03-25T01:08:42.643Z,90.30
2019-03-25T01:11:12.423Z,89.40
2019-03-25T01:13:42.172Z,90.00
2019-03-25T01:16:11.865Z,89.20
2019-03-25T01:18:41.560Z,89.10
2019-03-25T01:21:11.385Z,89.50
2019-03-25T01:23:41.305Z,89.50
2019-03-25T01:26:11.135Z,90.20
2019-03-25T01:28:40.890Z,90.30
2019-03-25T01:31:10.682Z,90.00
2019-03-25T01:33:40.371Z,89.90
2019-03-25T01:36:10.227Z,90.20
2019-03-25T01:38:40.017Z,89.70
2019-03-25T01:41:09.687Z,89.70
2019-03-25T01:43:39.442Z,90.00
2019-03-25T01:46:09.151Z,89.70
2019-03-25T01:48:38.848Z,90.60
2019-03-25T01:51:27.386Z,90.70
2019-03-25T01:53:57.082Z,91.10
2019-03-25T01:56:26.781Z,92.00
2019-03-25T01:58:56.654Z,93.00
2019-03-25T02:01:26.407Z,93.50
2019-03-25T02:03:56.152Z,94.30
2019-03-25T02:06:25.889Z,94.60
2019-03-25T02:08:55.575Z,95.50
2019-03-25T02:11:25.259Z,95.30
2019-03-25T02:13:55.143Z,95.10
2019-03-25T02:16:24.978Z,95.70
2019-03-25T02:18:54.683Z,96.00
2019-03-25T02:21:24.457Z,96.50
2019-03-25T02:23:54.139Z,95.80
2019-03-25T02:26:23.820Z,96.80
2019-03-25T02:28:53.549Z,96.50
2019-03-25T02:31:23.275Z,96.10
2019-03-25T02:33:53.117Z,96.10
2019-03-25T02:36:23.021Z,96.60
2019-03-25T02:38:52.684Z,96.90
2019-03-25T02:41:22.537Z,97.00
2019-03-25T02:43:52.321Z,97.10
2019-03-25T02:46:22.080Z,97.40
2019-03-25T02:48:51.790Z,97.70
2019-03-25T02:51:21.875Z,97.80
2019-03-25T02:53:51.625Z,98.50
2019-03-25T02:56:21.323Z,98.90
2019-03-25T02:58:51.078Z,99.20
2019-03-25T03:01:20.831Z,99.70
2019-03-25T03:03:50.588Z,99.60
2019-03-25T03:06:20.833Z,99.80
2019-03-25T03:08:50.658Z,99.90
2019-03-25T03:11:20.341Z,99.60
2019-03-25T03:13:50.064Z,99.70
2019-03-25T03:16:20.024Z,99.90
2019-03-25T03:18:49.782Z,99.90
2019-03-25T03:21:19.571Z,99.90
2019-03-25T03:23:49.436Z,99.90
2019-03-25T03:26:19.211Z,99.90
2019-03-25T03:28:48.989Z,99.90
2019-03-25T03:31:18.740Z,99.90
2019-03-25T03:33:48.498Z,99.90
2019-03-25T03:36:18.293Z,99.90
2019-03-25T03:38:48.074Z,99.90
2019-03-25T03:41:17.846Z,99.90
2019-03-25T03:43:47.625Z,99.90
2019-03-25T03:46:17.371Z,99.90
2019-03-25T03:48:47.042Z,99.90
2019-03-25T03:51:16.766Z,99.90
2019-03-25T03:53:46.517Z,99.90
2019-03-25T03:56:16.768Z,99.90
2019-03-25T03:58:47.286Z,99.90
2019-03-25T04:01:17.030Z,99.90
2019-03-25T04:03:46.781Z,99.90
2019-03-25T04:06:16.539Z,99.90
2019-03-25T04:08:46.241Z,99.90
2019-03-25T04:11:15.991Z,99.90
2019-03-25T04:13:45.782Z,99.90
2019-03-25T04:16:15.555Z,99.90
2019-03-25T04:18:45.297Z,99.90
2019-03-25T04:21:15.407Z,99.90
2019-03-25T04:23:46.503Z,99.90
2019-03-25T04:26:27.787Z,99.90
2019-03-25T04:28:47.865Z,99.90
2019-03-25T04:31:17.656Z,99.90
2019-03-25T04:33:47.402Z,99.90
2019-03-25T04:36:17.119Z,99.90
2019-03-25T04:38:46.867Z,99.90
2019-03-25T04:41:16.623Z,99.90
2019-03-25T04:43:46.419Z,99.90
2019-03-25T04:46:16.423Z,99.90
2019-03-25T04:48:46.190Z,99.90
2019-03-25T04:51:15.894Z,99.90
2019-03-25T04:53:45.571Z,99.90
2019-03-25T04:56:15.251Z,99.90
2019-03-25T04:58:44.967Z,99.90
2019-03-25T05:01:14.650Z,99.90
2019-03-25T05:03:44.325Z,99.90
2019-03-25T05:06:14.024Z,99.90
2019-03-25T05:08:43.716Z,99.90
2019-03-25T05:11:13.466Z,99.90
2019-03-25T05:13:43.233Z,99.90
2019-03-25T05:16:12.914Z,99.90
2019-03-25T05:18:42.730Z,99.90
2019-03-25T05:21:12.830Z,99.90
2019-03-25T05:23:42.514Z,99.90
2019-03-25T05:26:12.261Z,99.90
2019-03-25T05:28:42.113Z,99.90
2019-03-25T05:31:11.829Z,99.90
2019-03-25T05:33:41.502Z,99.90
2019-03-25T05:36:11.275Z,99.90
2019-03-25T05:38:41.047Z,99.90
2019-03-25T05:41:10.790Z,99.90
2019-03-25T05:43:40.567Z,99.90
2019-03-25T05:46:10.239Z,99.90
2019-03-25T05:48:39.913Z,99.90
2019-03-25T05:51:09.624Z,99.90
2019-03-25T05:53:39.300Z,99.90
2019-03-25T05:56:08.971Z,99.90
2019-03-25T05:58:38.763Z,99.90
2019-03-25T06:01:08.743Z,99.90
2019-03-25T06:03:38.416Z,99.90
2019-03-25T06:06:08.107Z,99.90
2019-03-25T06:08:37.875Z,99.90
2019-03-25T06:11:07.585Z,99.90
2019-03-25T06:13:37.353Z,99.90
2019-03-25T06:16:07.075Z,99.90
2019-03-25T06:18:36.843Z,99.90
2019-03-25T06:21:06.713Z,99.90
2019-03-25T06:23:36.459Z,99.90
2019-03-25T06:26:06.207Z,99.90
2019-03-25T06:28:35.912Z,99.90
2019-03-25T06:31:05.591Z,99.90
2019-03-25T06:33:35.343Z,99.90
2019-03-25T06:36:05.059Z,99.90
2019-03-25T06:38:34.751Z,99.90
2019-03-25T06:41:04.560Z,99.90
2019-03-25T06:43:34.335Z,99.90
2019-03-25T06:46:04.015Z,99.90
2019-03-25T06:48:33.759Z,99.90
2019-03-25T06:51:03.458Z,99.90
2019-03-25T06:53:33.129Z,99.90
2019-03-25T06:56:02.822Z,99.90
2019-03-25T06:58:32.611Z,99.90
2019-03-25T07:01:02.353Z,99.90
2019-03-25T07:03:32.019Z,99.90
2019-03-25T07:06:01.736Z,99.90
2019-03-25T07:08:31.501Z,99.90
2019-03-25T07:11:01.463Z,99.90
2019-03-25T07:13:31.172Z,99.90
2019-03-25T07:16:00.919Z,99.90
2019-03-25T07:18:30.657Z,99.90
2019-03-25T07:21:00.543Z,99.90
2019-03-25T07:23:30.227Z,99.90
2019-03-25T07:25:59.906Z,99.90
2019-03-25T07:28:29.621Z,99.90
2019-03-25T07:30:59.437Z,99.90
2019-03-25T07:33:29.177Z,99.90
2019-03-25T07:35:58.894Z,99.10
2019-03-25T07:38:28.587Z,99.20
2019-03-25T07:40:58.411Z,99.50
2019-03-25T07:43:28.119Z,99.90
2019-03-25T07:45:57.793Z,99.90
2019-03-25T07:48:27.559Z,99.90
2019-03-25T07:50:57.346Z,99.70
2019-03-25T07:53:27.055Z,99.10
2019-03-25T07:55:56.837Z,99.20
2019-03-25T07:58:26.855Z,99.20
2019-03-25T08:00:56.622Z,99.90
2019-03-25T08:03:26.361Z,99.90
2019-03-25T08:05:56.407Z,99.90
2019-03-25T08:08:26.131Z,99.90
2019-03-25T08:10:56.377Z,99.90
2019-03-25T08:13:26.263Z,99.90
2019-03-25T08:15:56.312Z,99.90
2019-03-25T08:18:26.035Z,99.90
2019-03-25T08:20:55.745Z,98.80
2019-03-25T08:23:25.491Z,97.70
2019-03-25T08:25:55.320Z,95.10
2019-03-25T08:28:25.112Z,83.30
2019-03-25T08:30:54.859Z,84.80
2019-03-25T08:33:24.545Z,84.50
2019-03-25T08:35:54.319Z,83.60
2019-03-25T08:38:24.067Z,83.70
2019-03-25T08:40:53.828Z,84.40
2019-03-25T08:43:23.609Z,82.90
2019-03-25T08:45:53.285Z,82.80
2019-03-25T08:48:23.071Z,83.10
2019-03-25T08:50:52.860Z,80.30
2019-03-25T08:53:22.607Z,77.00
2019-03-25T08:55:52.298Z,74.00
2019-03-25T08:58:22.021Z,75.80
2019-03-25T09:00:51.710Z,75.50
2019-03-25T09:03:21.475Z,72.50
2019-03-25T09:05:51.248Z,73.60
2019-03-25T09:08:20.907Z,73.20
2019-03-25T09:10:50.650Z,74.50
2019-03-25T09:13:20.448Z,73.80
2019-03-25T09:15:50.128Z,72.90
2019-03-25T09:18:19.795Z,76.00
2019-03-25T09:20:49.703Z,76.10
2019-03-25T09:23:19.451Z,77.30
2019-03-25T09:25:49.487Z,79.30
2019-03-25T09:28:24.070Z,79.40
2019-03-25T09:31:20.284Z,80.80
2019-03-25T09:33:50.721Z,80.40
2019-03-25T09:36:21.502Z,81.20
2019-03-25T09:38:51.249Z,79.90
2019-03-25T09:41:21.254Z,78.10
2019-03-25T09:43:50.995Z,76.50
2019-03-25T09:46:20.663Z,78.10
2019-03-25T09:48:50.383Z,74.90
2019-03-25T09:51:20.141Z,77.10
2019-03-25T09:53:49.835Z,82.10
2019-03-25T09:56:19.677Z,84.70
2019-03-25T09:58:49.443Z,86.40
2019-03-25T10:01:19.186Z,95.60
2019-03-25T10:03:49.066Z,99.90
2019-03-25T10:06:19.055Z,99.90
2019-03-25T10:08:48.757Z,99.90
2019-03-25T10:11:18.481Z,99.90
2019-03-25T10:13:48.219Z,97.50
2019-03-25T10:16:17.973Z,98.30
2019-03-25T10:18:48.430Z,94.80
2019-03-25T10:21:18.139Z,92.20
2019-03-25T10:23:47.874Z,90.10
2019-03-25T10:26:17.743Z,88.00
2019-03-25T10:28:48.985Z,86.60
2019-03-25T10:31:18.973Z,82.50
2019-03-25T10:33:48.808Z,78.80
2019-03-25T10:36:18.585Z,75.80
2019-03-25T10:38:48.363Z,75.70
2019-03-25T10:41:18.262Z,73.90
2019-03-25T10:43:48.035Z,70.40
2019-03-25T10:46:17.827Z,70.20
2019-03-25T10:48:47.643Z,69.50
2019-03-25T10:51:17.421Z,70.60
2019-03-25T10:53:47.259Z,66.60
2019-03-25T10:56:17.237Z,62.60
2019-03-25T10:58:46.999Z,59.50
2019-03-25T11:01:16.898Z,58.20
2019-03-25T11:03:46.781Z,55.70
2019-03-25T11:06:16.551Z,56.90
2019-03-25T11:08:46.295Z,54.10
2019-03-25T11:11:16.417Z,50.00
2019-03-25T11:13:46.184Z,49.40
2019-03-25T11:16:15.967Z,51.20
2019-03-25T11:18:45.703Z,50.70
2019-03-25T11:21:15.461Z,51.00
2019-03-25T11:23:45.142Z,53.70
2019-03-25T11:26:14.864Z,61.00
2019-03-25T11:28:44.623Z,64.00
2019-03-25T11:31:14.343Z,65.40
2019-03-25T11:33:44.067Z,63.30
2019-03-25T11:36:13.779Z,64.20
2019-03-25T11:38:43.489Z,63.50
2019-03-25T11:41:13.379Z,62.60
2019-03-25T11:43:43.155Z,62.30
2019-03-25T11:46:12.927Z,61.30
2019-03-25T11:48:42.655Z,61.60
2019-03-25T11:51:12.377Z,59.40
2019-03-25T11:53:42.224Z,60.50
2019-03-25T11:56:11.973Z,57.10
2019-03-25T11:58:41.738Z,55.00
2019-03-25T12:01:11.556Z,56.60
2019-03-25T12:03:41.378Z,56.90
2019-03-25T12:06:11.462Z,58.40
2019-03-25T12:08:41.231Z,59.00
2019-03-25T12:11:10.969Z,53.30
2019-03-25T12:13:40.791Z,51.60
2019-03-25T12:16:10.521Z,53.00
2019-03-25T12:18:40.263Z,53.70
2019-03-25T12:21:10.029Z,52.90
2019-03-25T12:23:39.804Z,53.80
2019-03-25T12:26:09.615Z,55.00
2019-03-25T12:28:39.726Z,54.50
2019-03-25T12:31:09.547Z,57.10
2019-03-25T12:33:39.293Z,63.60
2019-03-25T12:36:09.139Z,70.40
2019-03-25T12:38:38.811Z,74.70
2019-03-25T12:41:08.609Z,74.50
2019-03-25T12:43:38.291Z,74.80
2019-03-25T12:46:08.063Z,75.50
2019-03-25T12:48:38.107Z,72.50
2019-03-25T12:51:07.941Z,73.10
2019-03-25T12:53:37.671Z,70.90
2019-03-25T12:56:07.492Z,69.80
2019-03-25T12:58:37.261Z,69.40
2019-03-25T13:01:06.973Z,67.50
2019-03-25T13:03:37.099Z,66.50
2019-03-25T13:06:06.851Z,67.40
2019-03-25T13:08:36.639Z,68.60
2019-03-25T13:11:06.371Z,69.20
2019-03-25T13:13:36.130Z,69.40
2019-03-25T13:16:05.909Z,67.60
2019-03-25T13:18:35.623Z,69.70
2019-03-25T13:21:05.382Z,85.30
2019-03-25T13:23:35.177Z,95.50
2019-03-25T13:26:05.307Z,99.90
2019-03-25T13:28:35.062Z,99.90
2019-03-25T13:31:04.809Z,99.90
2019-03-25T13:33:34.579Z,98.70
2019-03-25T13:36:06.208Z,89.00
2019-03-25T13:38:35.973Z,87.20
2019-03-25T13:41:05.906Z,80.30
2019-03-25T13:43:35.771Z,77.40
2019-03-25T13:46:05.987Z,77.60
2019-03-25T13:48:35.977Z,75.90
2019-03-25T13:51:05.862Z,75.40
2019-03-25T13:53:35.613Z,75.30
2019-03-25T13:56:05.561Z,74.30
2019-03-25T13:58:35.391Z,74.60
2019-03-25T14:01:05.609Z,71.30
2019-03-25T14:03:35.344Z,71.10
2019-03-25T14:06:05.079Z,70.50
2019-03-25T14:08:34.854Z,68.50
2019-03-25T14:11:04.834Z,66.30
2019-03-25T14:13:34.598Z,65.80
2019-03-25T14:16:04.753Z,64.70
2019-03-25T14:18:34.526Z,63.80
2019-03-25T14:21:04.269Z,60.40
2019-03-25T14:23:34.042Z,59.70
2019-03-25T14:26:03.864Z,61.20
2019-03-25T14:28:33.544Z,60.10
2019-03-25T14:31:03.275Z,61.20
2019-03-25T14:33:33.008Z,62.70
2019-03-25T14:36:02.693Z,62.70
2019-03-25T14:38:32.480Z,62.80
2019-03-25T14:41:02.600Z,61.40
2019-03-25T14:43:32.363Z,59.20
2019-03-25T14:46:02.231Z,60.40
2019-03-25T14:48:31.958Z,58.80
2019-03-25T14:51:01.820Z,57.80
2019-03-25T14:53:31.505Z,55.20
2019-03-25T14:56:01.480Z,58.40
2019-03-25T14:58:31.319Z,59.70
2019-03-25T15:01:01.022Z,58.20
2019-03-25T15:03:30.936Z,59.60
2019-03-25T15:06:00.783Z,57.80
2019-03-25T15:08:30.685Z,52.70
2019-03-25T15:11:00.472Z,48.00
2019-03-25T15:13:30.267Z,47.70
2019-03-25T15:16:00.032Z,49.40
2019-03-25T15:18:30.926Z,48.70
2019-03-25T15:21:00.614Z,47.80
2019-03-25T15:23:30.445Z,49.30
2019-03-25T15:26:00.172Z,49.60
2019-03-25T15:28:29.866Z,52.10
2019-03-25T15:30:59.635Z,53.10
2019-03-25T15:33:29.349Z,54.00
2019-03-25T15:35:59.054Z,54.70
2019-03-25T15:38:28.815Z,54.10
2019-03-25T15:40:58.616Z,54.30
2019-03-25T15:43:28.304Z,55.60
2019-03-25T15:45:58.075Z,56.90
2019-03-25T15:48:27.822Z,59.50
2019-03-25T15:50:57.598Z,59.40
2019-03-25T15:53:28.739Z,58.90
2019-03-25T15:55:59.156Z,59.30
2019-03-25T15:58:28.867Z,59.30
2019-03-25T16:00:58.736Z,59.20
2019-03-25T16:03:28.544Z,59.30
2019-03-25T16:05:58.326Z,60.10
2019-03-25T16:08:28.591Z,62.60
2019-03-25T16:10:58.441Z,63.90
2019-03-25T16:13:28.284Z,64.80
2019-03-25T16:16:01.470Z,66.00
2019-03-25T16:18:39.637Z,63.60
2019-03-25T16:21:09.980Z,64.10
2019-03-25T16:23:40.716Z,64.40
2019-03-25T16:26:11.097Z,64.50
2019-03-25T16:28:40.824Z,64.30
2019-03-25T16:31:10.605Z,62.00
2019-03-25T16:33:40.464Z,61.10
2019-03-25T16:36:10.176Z,61.80
2019-03-25T16:38:39.858Z,63.10
2019-03-25T16:41:09.823Z,64.70
2019-03-25T16:43:39.641Z,65.10
2019-03-25T16:46:09.499Z,66.20
2019-03-25T16:48:39.354Z,65.90
2019-03-25T16:51:09.077Z,66.40
2019-03-25T16:53:38.834Z,67.00
2019-03-25T16:56:08.611Z,66.50
2019-03-25T16:58:38.420Z,66.30
2019-03-25T17:01:10.199Z,66.70
2019-03-25T17:03:39.791Z,67.10
2019-03-25T17:06:09.598Z,67.30
2019-03-25T17:08:39.329Z,67.80
2019-03-25T17:11:09.528Z,67.80
2019-03-25T17:13:39.383Z,68.20
2019-03-25T17:16:09.165Z,68.80
2019-03-25T17:18:38.886Z,68.00
2019-03-25T17:21:08.718Z,68.30
2019-03-25T17:23:38.591Z,68.10
2019-03-25T17:26:08.425Z,68.50
2019-03-25T17:28:38.245Z,66.90
2019-03-25T17:31:08.030Z,67.90
2019-03-25T17:33:37.709Z,68.40
2019-03-25T17:36:07.508Z,67.80
2019-03-25T17:38:37.209Z,69.10
2019-03-25T17:41:07.362Z,70.20
2019-03-25T17:43:37.168Z,68.90
2019-03-25T17:46:07.003Z,68.60
2019-03-25T17:48:36.695Z,69.80
2019-03-25T17:51:06.553Z,70.10
2019-03-25T17:53:36.225Z,71.10
2019-03-25T17:56:05.995Z,70.80
2019-03-25T17:58:36.082Z,72.20
2019-03-25T18:01:31.522Z,72.30
2019-03-25T18:03:52.470Z,73.40
2019-03-25T18:06:22.232Z,74.10
2019-03-25T18:08:51.924Z,74.00
2019-03-25T18:11:22.978Z,74.40
2019-03-25T18:13:52.933Z,74.70
2019-03-25T18:16:22.723Z,75.30
2019-03-25T18:18:52.542Z,75.60
2019-03-25T18:21:22.340Z,75.70
2019-03-25T18:23:52.158Z,75.90
2019-03-25T18:26:21.987Z,76.70
2019-03-25T18:28:51.753Z,76.40
2019-03-25T18:31:21.528Z,77.10
2019-03-25T18:33:51.323Z,76.60
2019-03-25T18:36:21.128Z,76.90
2019-03-25T18:38:50.895Z,77.60
2019-03-25T18:41:20.614Z,76.60
2019-03-25T18:43:51.029Z,77.00
2019-03-25T18:46:20.710Z,76.90
2019-03-25T18:48:50.459Z,77.20
2019-03-25T18:51:20.281Z,78.10
2019-03-25T18:53:50.128Z,77.30
2019-03-25T18:56:20.116Z,77.90
2019-03-25T18:58:49.886Z,78.20
2019-03-25T19:01:19.597Z,78.70
2019-03-25T19:03:49.478Z,79.10
2019-03-25T19:06:19.192Z,79.90
2019-03-25T19:08:49.564Z,80.10
2019-03-25T19:11:30.610Z,80.50
2019-03-25T19:13:50.850Z,81.30
2019-03-25T19:16:20.637Z,82.00
2019-03-25T19:18:50.529Z,82.00
2019-03-25T19:21:20.340Z,82.20
2019-03-25T19:23:50.118Z,82.00
2019-03-25T19:26:19.923Z,82.20
2019-03-25T19:28:49.713Z,83.30
2019-03-25T19:31:19.531Z,83.00
2019-03-25T19:33:49.262Z,83.70
2019-03-25T19:36:19.168Z,84.00
2019-03-25T19:38:48.978Z,83.70
2019-03-25T19:41:31.308Z,84.00
2019-03-25T19:43:50.080Z,84.20
2019-03-25T19:46:19.880Z,84.00
2019-03-25T19:48:49.857Z,84.90
2019-03-25T19:51:19.564Z,84.90
2019-03-25T19:53:49.318Z,85.50
2019-03-25T19:56:19.298Z,86.00
2019-03-25T19:58:49.021Z,86.40
2019-03-25T20:01:18.904Z,86.60
2019-03-25T20:03:48.768Z,86.70
2019-03-25T20:06:26.080Z,87.20
2019-03-25T20:08:50.004Z,88.10
2019-03-25T20:11:19.845Z,88.10
2019-03-25T20:13:49.610Z,87.90
2019-03-25T20:16:19.388Z,88.40
2019-03-25T20:18:49.499Z,88.50
2019-03-25T20:21:19.398Z,89.20
2019-03-25T20:23:50.522Z,89.70
2019-03-25T20:26:20.802Z,90.30
2019-03-25T20:28:50.516Z,89.30
2019-03-25T20:31:20.335Z,89.50
2019-03-25T20:33:50.195Z,90.20
2019-03-25T20:36:19.923Z,90.40
2019-03-25T20:39:00.284Z,90.20
2019-03-25T20:41:30.338Z,90.80
2019-03-25T20:44:00.138Z,91.00
2019-03-25T20:46:30.299Z,91.60
2019-03-25T20:49:00.031Z,91.20
2019-03-25T20:51:29.818Z,90.80
2019-03-25T20:53:59.614Z,90.60
2019-03-25T20:56:29.375Z,90.50
2019-03-25T20:58:59.122Z,90.30
2019-03-25T21:01:28.915Z,91.20
2019-03-25T21:03:58.836Z,91.90
2019-03-25T21:06:28.538Z,92.30
2019-03-25T21:08:58.397Z,92.70
2019-03-25T21:11:29.170Z,93.10
2019-03-25T21:13:58.975Z,93.10
2019-03-25T21:16:28.918Z,93.20
2019-03-25T21:19:01.615Z,94.40
2019-03-25T21:21:31.930Z,94.30
2019-03-25T21:24:01.654Z,95.10
2019-03-25T21:26:31.425Z,95.20
2019-03-25T21:29:01.202Z,95.80
2019-03-25T21:31:31.066Z,96.50
2019-03-25T21:34:00.909Z,96.60
2019-03-25T21:36:32.464Z,97.50
2019-03-25T21:39:02.370Z,96.50
2019-03-25T21:41:33.137Z,96.50
2019-03-25T21:44:03.216Z,96.90
2019-03-25T21:46:33.081Z,97.00
2019-03-25T21:49:02.883Z,97.30
2019-03-25T21:51:32.679Z,97.30
2019-03-25T21:54:02.488Z,97.20
2019-03-25T21:56:32.271Z,98.30
2019-03-25T21:59:02.058Z,97.80
2019-03-25T22:01:31.780Z,98.30
2019-03-25T22:04:01.466Z,98.30
2019-03-25T22:06:31.254Z,99.50
2019-03-25T22:09:01.058Z,97.20
2019-03-25T22:11:30.812Z,97.50
2019-03-25T22:14:00.648Z,97.40
2019-03-25T22:16:30.442Z,97.10
2019-03-25T22:19:00.237Z,95.20
2019-03-25T22:21:29.995Z,95.50
2019-03-25T22:23:59.800Z,95.00
2019-03-25T22:26:29.480Z,94.50
2019-03-25T22:28:59.159Z,94.40
2019-03-25T22:31:28.958Z,94.10
2019-03-25T22:33:58.715Z,94.50
2019-03-25T22:36:28.532Z,94.90
2019-03-25T22:38:58.342Z,94.60
2019-03-25T22:41:28.210Z,94.10
2019-03-25T22:43:57.896Z,93.80
2019-03-25T22:46:27.778Z,93.70
2019-03-25T22:48:57.452Z,93.10
2019-03-25T22:51:27.222Z,94.00
2019-03-25T22:53:56.950Z,91.80
2019-03-25T22:56:26.709Z,91.00
2019-03-25T22:58:56.471Z,91.20
2019-03-25T23:01:26.246Z,91.00
2019-03-25T23:03:56.004Z,90.30
2019-03-25T23:06:25.695Z,89.80
2019-03-25T23:08:55.568Z,89.30
2019-03-25T23:11:25.265Z,89.20
2019-03-25T23:13:55.016Z,88.10
2019-03-25T23:16:24.850Z,88.30
2019-03-25T23:18:54.605Z,85.80
2019-03-25T23:21:24.360Z,86.30
2019-03-25T23:23:54.209Z,86.70
2019-03-25T23:26:23.985Z,86.30
2019-03-25T23:28:53.756Z,84.00
2019-03-25T23:31:23.792Z,84.20
2019-03-25T23:33:53.564Z,82.70
2019-03-25T23:36:23.522Z,82.70
2019-03-25T23:38:53.239Z,82.80
2019-03-25T23:41:22.986Z,81.90
2019-03-25T23:43:52.767Z,82.00
2019-03-25T23:46:22.544Z,81.10
2019-03-25T23:48:52.314Z,81.00
2019-03-25T23:51:22.016Z,80.70
2019-03-25T23:53:53.382Z,79.50
2019-03-25T23:56:23.094Z,79.50
2019-03-25T23:58:52.862Z,79.80
